Time;durP1;ratioP1;P1;durP2;ratioP2;P2;SDS_P1;SDS_P2;PMS_P1;PMS_P2;Temp;Humidity;BMP_temperature;BMP_pressure;BME280_temperature;BME280_humidity;BME280_pressure;Samples;Min_cycle;Max_cycle;Signal;HPM_P1;HPM_P2
2021/08/24 00:01:32;;;;;;;8.60;7.90;;;;;;;;;;4947991;29;24960;-71
2021/08/24 00:03:57;;;;;;;6.50;6.00;;;;;;;;;;4948186;29;24493;-70
2021/08/24 00:06:22;;;;;;;6.37;5.87;;;;;;;;;;4946455;29;24458;-70
2021/08/24 00:08:47;;;;;;;7.55;7.00;;;;;;;;;;4940950;29;24449;-70
2021/08/24 00:11:12;;;;;;;8.00;7.30;;;;;;;;;;4943405;29;24936;-70
2021/08/24 00:13:38;;;;;;;7.30;6.70;;;;;;;;;;4949073;28;24447;-70
2021/08/24 00:16:04;;;;;;;7.82;7.13;;;;;;;;;;4948101;29;24793;-70
2021/08/24 00:18:29;;;;;;;7.88;7.28;;;;;;;;;;4948683;29;24893;-70
2021/08/24 00:20:55;;;;;;;7.70;7.10;;;;;;;;;;4944290;29;24445;-70
2021/08/24 00:23:21;;;;;;;8.65;7.95;;;;;;;;;;4943548;29;25051;-70
2021/08/24 00:25:47;;;;;;;6.57;6.07;;;;;;;;;;4947863;28;24498;-69
2021/08/24 00:28:13;;;;;;;6.60;6.00;;;;;;;;;;4948138;29;24562;-69
2021/08/24 00:30:38;;;;;;;6.95;6.40;;;;;;;;;;4947499;29;24851;-68
2021/08/24 00:33:04;;;;;;;7.47;6.90;;;;;;;;;;4946681;29;24423;-69
2021/08/24 00:35:29;;;;;;;5.97;5.50;;;;;;;;;;4938628;29;24421;-69
2021/08/24 00:37:55;;;;;;;6.97;6.37;;;;;;;;;;4947010;29;24970;-69
2021/08/24 00:40:20;;;;;;;7.70;7.00;;;;;;;;;;4948266;29;24551;-68
2021/08/24 00:42:45;;;;;;;7.53;6.93;;;;;;;;;;4948948;29;24521;-69
2021/08/24 00:45:12;;;;;;;7.68;6.97;;;;;;;;;;4948659;29;24505;-68
2021/08/24 00:47:40;;;;;;;7.00;6.40;;;;;;;;;;4946697;28;24471;-67
2021/08/24 00:50:09;;;;;;;6.85;6.25;;;;;;;;;;4948598;29;24448;-67
2021/08/24 00:52:34;;;;;;;6.88;6.30;;;;;;;;;;4940946;29;24422;-67
2021/08/24 00:55:00;;;;;;;6.50;6.00;;;;;;;;;;4944834;29;25236;-67
2021/08/24 00:57:25;;;;;;;7.87;7.10;;;;;;;;;;4944372;29;25546;-67
2021/08/24 00:59:52;;;;;;;5.40;5.00;;;;;;;;;;4945185;29;24412;-68
2021/08/24 01:02:18;;;;;;;6.93;6.05;;;;;;;;;;4948416;29;24975;-67
2021/08/24 01:04:45;;;;;;;6.10;5.50;;;;;;;;;;4948124;29;24445;-68
2021/08/24 01:07:19;;;;;;;5.27;4.87;;;;;;;;;;4948357;29;24467;-67
2021/08/24 01:09:51;;;;;;;5.90;5.40;;;;;;;;;;4947032;29;24416;-67
2021/08/24 01:12:36;;;;;;;5.40;5.00;;;;;;;;;;4942593;28;24402;-67
2021/08/24 01:15:20;;;;;;;6.28;5.78;;;;;;;;;;4938578;29;24854;-67
2021/08/24 01:17:54;;;;;;;5.47;5.07;;;;;;;;;;4948047;29;24501;-67
2021/08/24 01:20:31;;;;;;;5.40;5.00;;;;;;;;;;4949031;29;24418;-68
2021/08/24 01:23:03;;;;;;;5.90;5.40;;;;;;;;;;4942315;29;24474;-66
2021/08/24 01:25:51;;;;;;;5.50;5.10;;;;;;;;;;4942644;29;24422;-66
2021/08/24 01:28:23;;;;;;;6.03;5.53;;;;;;;;;;4930200;29;24584;-66
2021/08/24 01:30:57;;;;;;;6.03;5.53;;;;;;;;;;4938846;29;24411;-66
2021/08/24 01:33:52;;;;;;;5.90;5.40;;;;;;;;;;4944434;29;24426;-66
2021/08/24 01:36:30;;;;;;;5.60;5.10;;;;;;;;;;4888558;29;24436;-66
2021/08/24 01:39:08;;;;;;;5.57;5.18;;;;;;;;;;4951968;29;24402;-66
2021/08/24 01:41:34;;;;;;;5.55;5.05;;;;;;;;;;4951851;29;24430;-65
2021/08/24 01:44:01;;;;;;;5.95;5.45;;;;;;;;;;4944792;29;24410;-66
2021/08/24 01:46:42;;;;;;;6.25;5.65;;;;;;;;;;4947276;29;24410;-66
2021/08/24 01:49:07;;;;;;;6.35;5.85;;;;;;;;;;4951741;29;24512;-66
2021/08/24 01:51:38;;;;;;;5.67;5.20;;;;;;;;;;4951556;28;24414;-67
2021/08/24 01:54:08;;;;;;;6.68;6.07;;;;;;;;;;4944700;29;24414;-68
2021/08/24 01:56:37;;;;;;;6.20;5.60;;;;;;;;;;4951993;29;24430;-68
2021/08/24 01:59:05;;;;;;;5.82;5.32;;;;;;;;;;4951338;29;24984;-69
2021/08/24 02:01:37;;;;;;;5.60;5.20;;;;;;;;;;4949783;29;26421;-68
2021/08/24 02:04:04;;;;;;;5.30;4.90;;;;;;;;;;4943076;29;24987;-67
2021/08/24 02:06:31;;;;;;;7.90;7.10;;;;;;;;;;4939981;29;24493;-68
2021/08/24 02:09:00;;;;;;;6.70;6.18;;;;;;;;;;4942584;29;24535;-66
2021/08/24 02:11:26;;;;;;;6.67;6.13;;;;;;;;;;4950953;28;25027;-66
2021/08/24 02:13:52;;;;;;;6.15;5.75;;;;;;;;;;4950304;29;24462;-67
2021/08/24 02:16:20;;;;;;;6.63;6.13;;;;;;;;;;4952004;29;24469;-67
2021/08/24 02:18:50;;;;;;;6.03;5.60;;;;;;;;;;4951061;29;24648;-68
2021/08/24 02:21:17;;;;;;;7.13;6.63;;;;;;;;;;4937917;29;24418;-66
2021/08/24 02:23:43;;;;;;;7.00;6.40;;;;;;;;;;4950806;29;24445;-67
2021/08/24 02:26:09;;;;;;;7.20;6.60;;;;;;;;;;4949444;29;25072;-67
2021/08/24 02:28:48;;;;;;;7.70;7.10;;;;;;;;;;4932788;29;24427;-66
2021/08/24 02:31:31;;;;;;;6.90;6.30;;;;;;;;;;4944130;29;24422;-66
2021/08/24 02:34:00;;;;;;;9.20;7.43;;;;;;;;;;4950776;29;24422;-67
2021/08/24 02:36:26;;;;;;;9.45;8.65;;;;;;;;;;4946436;29;24433;-68
2021/08/24 02:38:56;;;;;;;7.47;6.88;;;;;;;;;;4950446;29;24421;-66
2021/08/24 02:41:26;;;;;;;9.45;8.65;;;;;;;;;;4950025;29;24411;-67
2021/08/24 02:43:56;;;;;;;9.10;8.50;;;;;;;;;;4950674;29;24410;-67
2021/08/24 02:46:23;;;;;;;11.23;10.13;;;;;;;;;;4949638;28;24420;-66
2021/08/24 02:48:52;;;;;;;9.27;8.65;;;;;;;;;;4949694;28;24460;-66
2021/08/24 02:51:18;;;;;;;13.50;12.40;;;;;;;;;;4949038;29;24414;-66
2021/08/24 02:53:47;;;;;;;10.75;9.82;;;;;;;;;;4950414;28;24505;-66
2021/08/24 02:56:12;;;;;;;9.80;9.00;;;;;;;;;;4949069;29;24444;-67
2021/08/24 02:58:37;;;;;;;11.10;10.30;;;;;;;;;;4948614;29;24493;-67
2021/08/24 03:01:02;;;;;;;10.18;9.38;;;;;;;;;;4941321;29;25011;-68
2021/08/24 03:03:29;;;;;;;12.02;11.02;;;;;;;;;;4950357;29;21277;-68
2021/08/24 03:05:56;;;;;;;11.73;10.83;;;;;;;;;;4949361;29;24418;-67
2021/08/24 03:08:21;;;;;;;9.48;8.77;;;;;;;;;;4951377;28;24731;-67
2021/08/24 03:10:48;;;;;;;12.13;11.23;;;;;;;;;;4946234;28;24509;-68
2021/08/24 03:13:22;;;;;;;9.82;9.05;;;;;;;;;;4948776;29;24434;-68
2021/08/24 03:15:58;;;;;;;9.60;8.90;;;;;;;;;;4947165;29;24465;-67
2021/08/24 03:18:26;;;;;;;8.60;8.00;;;;;;;;;;4945456;28;24421;-67
2021/08/24 03:20:54;;;;;;;10.23;9.52;;;;;;;;;;4947555;29;24533;-67
2021/08/24 03:23:20;;;;;;;10.43;9.63;;;;;;;;;;4947527;29;24496;-67
2021/08/24 03:25:47;;;;;;;9.80;9.00;;;;;;;;;;4947170;29;25047;-67
2021/08/24 03:28:13;;;;;;;9.55;8.77;;;;;;;;;;4947703;28;24425;-66
2021/08/24 03:30:39;;;;;;;10.00;9.20;;;;;;;;;;4938283;29;24854;-66
2021/08/24 03:33:04;;;;;;;10.05;9.25;;;;;;;;;;4943305;28;24514;-66
2021/08/24 03:35:29;;;;;;;9.80;9.10;;;;;;;;;;4942147;29;25090;-67
2021/08/24 03:37:54;;;;;;;11.48;10.57;;;;;;;;;;4948106;29;24428;-66
2021/08/24 03:40:19;;;;;;;10.30;9.43;;;;;;;;;;4943301;29;24536;-67
2021/08/24 03:42:45;;;;;;;11.17;10.30;;;;;;;;;;4947765;29;24825;-66
2021/08/24 03:45:10;;;;;;;9.83;9.13;;;;;;;;;;4942386;29;24817;-67
2021/08/24 03:47:35;;;;;;;10.95;10.15;;;;;;;;;;4949593;28;24450;-67
2021/08/24 03:50:01;;;;;;;11.90;11.00;;;;;;;;;;4947590;28;25056;-67
2021/08/24 03:52:26;;;;;;;9.30;8.60;;;;;;;;;;4946343;29;24411;-67
2021/08/24 03:54:51;;;;;;;10.50;9.70;;;;;;;;;;4947218;29;24468;-66
2021/08/24 03:57:17;;;;;;;8.68;8.07;;;;;;;;;;4935385;29;24481;-67
2021/08/24 03:59:42;;;;;;;8.80;8.13;;;;;;;;;;4944484;28;24426;-68
2021/08/24 04:02:07;;;;;;;9.77;8.98;;;;;;;;;;4948629;29;24477;-67
2021/08/24 04:04:32;;;;;;;10.13;9.30;;;;;;;;;;4948832;29;24522;-68
2021/08/24 04:06:58;;;;;;;11.50;10.60;;;;;;;;;;4943478;28;24419;-67
2021/08/24 04:09:23;;;;;;;10.80;9.90;;;;;;;;;;4943378;29;25235;-68
2021/08/24 04:11:48;;;;;;;10.55;9.65;;;;;;;;;;4944444;29;24477;-68
2021/08/24 04:14:13;;;;;;;9.85;9.05;;;;;;;;;;4949353;29;24981;-68
2021/08/24 04:16:38;;;;;;;9.60;8.90;;;;;;;;;;4947727;29;24993;-68
2021/08/24 04:19:03;;;;;;;11.30;10.43;;;;;;;;;;4948077;29;25011;-68
2021/08/24 04:21:29;;;;;;;10.80;10.00;;;;;;;;;;4947368;29;24777;-67
2021/08/24 04:23:54;;;;;;;10.02;9.32;;;;;;;;;;4943695;29;24505;-67
2021/08/24 04:26:20;;;;;;;9.35;8.65;;;;;;;;;;4944353;29;24434;-68
2021/08/24 04:28:45;;;;;;;9.50;8.80;;;;;;;;;;4948877;29;25058;-69
2021/08/24 04:31:12;;;;;;;9.50;8.80;;;;;;;;;;4946257;29;24410;-68
2021/08/24 04:33:37;;;;;;;8.70;8.10;;;;;;;;;;4947239;29;24512;-68
2021/08/24 04:36:03;;;;;;;7.55;7.05;;;;;;;;;;4947721;29;24481;-68
2021/08/24 04:38:29;;;;;;;8.60;8.00;;;;;;;;;;4948920;28;24434;-68
2021/08/24 04:40:54;;;;;;;8.90;8.10;;;;;;;;;;4937184;29;24503;-68
2021/08/24 04:43:20;;;;;;;8.17;7.67;;;;;;;;;;4948039;29;24421;-67
2021/08/24 04:45:45;;;;;;;8.45;7.85;;;;;;;;;;4941853;28;24825;-67
2021/08/24 04:48:10;;;;;;;9.40;8.60;;;;;;;;;;4945434;29;24785;-68
2021/08/24 04:50:36;;;;;;;7.33;6.83;;;;;;;;;;4947433;29;24424;-67
2021/08/24 04:53:01;;;;;;;7.73;7.13;;;;;;;;;;4947295;29;24987;-67
2021/08/24 04:55:26;;;;;;;7.17;6.67;;;;;;;;;;4945021;29;24478;-67
2021/08/24 04:57:52;;;;;;;7.50;6.90;;;;;;;;;;4947041;29;24421;-67
2021/08/24 05:00:17;;;;;;;7.93;7.22;;;;;;;;;;4949723;28;24549;-67
2021/08/24 05:02:42;;;;;;;8.70;8.00;;;;;;;;;;4946670;29;24462;-68
2021/08/24 05:05:07;;;;;;;7.30;6.80;;;;;;;;;;4947403;29;24855;-68
2021/08/24 05:07:33;;;;;;;6.28;5.78;;;;;;;;;;4951439;28;25066;-69
2021/08/24 05:09:58;;;;;;;8.20;7.40;;;;;;;;;;4936023;29;24418;-68
2021/08/24 05:12:23;;;;;;;9.15;8.45;;;;;;;;;;4949738;28;24533;-67
2021/08/24 05:14:48;;;;;;;8.70;8.00;;;;;;;;;;4945915;28;24433;-68
2021/08/24 05:17:13;;;;;;;8.48;7.78;;;;;;;;;;4951488;29;24968;-67
2021/08/24 05:19:38;;;;;;;8.50;7.60;;;;;;;;;;4951734;29;24422;-67
2021/08/24 05:22:04;;;;;;;9.57;8.70;;;;;;;;;;4943033;29;24429;-67
2021/08/24 05:24:29;;;;;;;10.03;9.27;;;;;;;;;;4943535;29;24956;-68
2021/08/24 05:26:54;;;;;;;9.98;9.15;;;;;;;;;;4940816;29;24430;-68
2021/08/24 05:29:19;;;;;;;8.80;8.10;;;;;;;;;;4947820;29;24497;-67
2021/08/24 05:31:45;;;;;;;8.90;8.20;;;;;;;;;;4949270;29;24425;-67
2021/08/24 05:34:10;;;;;;;11.00;10.20;;;;;;;;;;4945509;29;24423;-67
2021/08/24 05:36:35;;;;;;;7.57;6.87;;;;;;;;;;4947667;29;24430;-66
2021/08/24 05:39:02;;;;;;;9.70;8.90;;;;;;;;;;4935997;29;24438;-66
2021/08/24 05:41:27;;;;;;;8.95;8.35;;;;;;;;;;4942380;29;24419;-66
2021/08/24 05:43:56;;;;;;;9.25;8.55;;;;;;;;;;4936433;28;24804;-67
2021/08/24 05:46:21;;;;;;;9.23;8.53;;;;;;;;;;4944669;28;24429;-67
2021/08/24 05:48:46;;;;;;;8.40;7.80;;;;;;;;;;4946541;29;24469;-67
2021/08/24 05:51:16;;;;;;;9.88;9.07;;;;;;;;;;4940127;29;24415;-66
2021/08/24 05:53:42;;;;;;;9.90;9.20;;;;;;;;;;4935903;29;24477;-67
2021/08/24 05:56:12;;;;;;;8.80;8.20;;;;;;;;;;4940753;29;24536;-66
2021/08/24 05:58:37;;;;;;;10.07;9.27;;;;;;;;;;4941976;29;24422;-66
2021/08/24 06:01:02;;;;;;;11.03;10.13;;;;;;;;;;4940613;28;24414;-66
2021/08/24 06:03:27;;;;;;;8.33;7.73;;;;;;;;;;4949777;28;24453;-66
2021/08/24 06:05:53;;;;;;;9.90;9.10;;;;;;;;;;4951056;28;24421;-66
2021/08/24 06:08:18;;;;;;;10.90;9.90;;;;;;;;;;4950174;28;24429;-66
2021/08/24 06:10:43;;;;;;;11.35;10.45;;;;;;;;;;4943432;28;24482;-66
2021/08/24 06:13:08;;;;;;;11.40;10.50;;;;;;;;;;4941790;28;24436;-67
2021/08/24 06:15:34;;;;;;;9.20;8.60;;;;;;;;;;4945127;29;24550;-66
2021/08/24 06:17:59;;;;;;;10.77;9.97;;;;;;;;;;4949869;28;24900;-67
2021/08/24 06:20:24;;;;;;;10.50;9.70;;;;;;;;;;4951446;29;24433;-66
2021/08/24 06:22:49;;;;;;;10.98;10.10;;;;;;;;;;4950541;28;24406;-66
2021/08/24 06:25:15;;;;;;;11.30;10.50;;;;;;;;;;4933040;29;24478;-66
2021/08/24 06:27:41;;;;;;;10.27;9.48;;;;;;;;;;4932311;29;24399;-67
2021/08/24 06:30:06;;;;;;;10.20;9.50;;;;;;;;;;4935951;29;24478;-66
2021/08/24 06:32:36;;;;;;;12.03;11.10;;;;;;;;;;4946033;29;24996;-67
2021/08/24 06:35:02;;;;;;;13.10;12.00;;;;;;;;;;4948081;29;24986;-66
2021/08/24 06:37:28;;;;;;;13.07;12.07;;;;;;;;;;4948654;29;24437;-67
2021/08/24 06:39:53;;;;;;;12.03;11.23;;;;;;;;;;4945586;29;24949;-66
2021/08/24 06:42:18;;;;;;;11.87;10.97;;;;;;;;;;4930934;29;24509;-66
2021/08/24 06:44:43;;;;;;;11.93;11.13;;;;;;;;;;4947539;29;24402;-65
2021/08/24 06:47:09;;;;;;;12.67;11.77;;;;;;;;;;4929530;29;24822;-65
2021/08/24 06:49:34;;;;;;;13.43;12.43;;;;;;;;;;4929098;29;24533;-65
2021/08/24 06:51:59;;;;;;;10.25;9.45;;;;;;;;;;4929142;29;24418;-65
2021/08/24 06:54:25;;;;;;;11.35;10.45;;;;;;;;;;4928523;29;24762;-65
2021/08/24 06:56:50;;;;;;;10.90;10.10;;;;;;;;;;4940365;29;24492;-65
2021/08/24 06:59:16;;;;;;;12.25;11.45;;;;;;;;;;4947630;29;24419;-65
2021/08/24 07:01:42;;;;;;;12.65;11.75;;;;;;;;;;4946977;29;24433;-65
2021/08/24 07:04:07;;;;;;;13.52;12.50;;;;;;;;;;4960639;28;24413;-65
2021/08/24 07:06:32;;;;;;;13.30;12.30;;;;;;;;;;4966970;28;24402;-65
2021/08/24 07:08:58;;;;;;;12.10;11.30;;;;;;;;;;4950228;28;24599;-66
2021/08/24 07:11:26;;;;;;;12.00;11.10;;;;;;;;;;4948066;29;24441;-65
2021/08/24 07:13:52;;;;;;;11.13;10.40;;;;;;;;;;4947809;29;24409;-66
2021/08/24 07:16:17;;;;;;;12.77;11.77;;;;;;;;;;4947817;29;24741;-66
2021/08/24 07:18:43;;;;;;;14.20;13.10;;;;;;;;;;4946683;29;24967;-65
2021/08/24 07:21:08;;;;;;;12.90;12.00;;;;;;;;;;4947439;29;24566;-65
2021/08/24 07:23:33;;;;;;;11.77;10.97;;;;;;;;;;4946970;29;25264;-65
2021/08/24 07:25:58;;;;;;;10.40;9.70;;;;;;;;;;4947865;29;24421;-65
2021/08/24 07:28:23;;;;;;;13.40;12.50;;;;;;;;;;4948002;29;24472;-65
2021/08/24 07:30:49;;;;;;;13.90;12.87;;;;;;;;;;4950004;29;24489;-65
2021/08/24 07:33:14;;;;;;;14.13;13.13;;;;;;;;;;4949607;29;24930;-65
2021/08/24 07:35:40;;;;;;;13.77;12.77;;;;;;;;;;4949474;28;24437;-65
2021/08/24 07:38:05;;;;;;;14.82;13.68;;;;;;;;;;4949463;29;24476;-65
2021/08/24 07:40:30;;;;;;;15.60;14.30;;;;;;;;;;4949633;29;24401;-65
2021/08/24 07:42:55;;;;;;;15.17;13.90;;;;;;;;;;4949304;29;24921;-65
2021/08/24 07:45:21;;;;;;;14.80;13.70;;;;;;;;;;4946944;28;25040;-65
2021/08/24 07:47:46;;;;;;;16.37;15.07;;;;;;;;;;4936184;28;24463;-65
2021/08/24 07:50:12;;;;;;;15.13;14.03;;;;;;;;;;4943886;29;24406;-64
2021/08/24 07:52:37;;;;;;;16.17;14.97;;;;;;;;;;4930213;29;24538;-64
2021/08/24 07:55:04;;;;;;;17.33;16.02;;;;;;;;;;4931691;29;24414;-64
2021/08/24 07:57:29;;;;;;;14.70;13.50;;;;;;;;;;4946642;29;24549;-64
2021/08/24 07:59:54;;;;;;;17.55;16.15;;;;;;;;;;4939979;29;24472;-64
2021/08/24 08:02:19;;;;;;;15.07;14.07;;;;;;;;;;4959033;28;24405;-65
2021/08/24 08:04:45;;;;;;;17.30;16.00;;;;;;;;;;4953176;28;24956;-64
2021/08/24 08:07:10;;;;;;;15.20;14.02;;;;;;;;;;4949335;29;24421;-64
2021/08/24 08:09:36;;;;;;;16.73;15.52;;;;;;;;;;4949611;29;24444;-64
2021/08/24 08:12:01;;;;;;;16.20;15.00;;;;;;;;;;4950085;29;24960;-64
2021/08/24 08:14:26;;;;;;;17.42;16.13;;;;;;;;;;4932423;29;24409;-64
2021/08/24 08:16:51;;;;;;;19.60;18.00;;;;;;;;;;4949575;29;24492;-64
2021/08/24 08:19:17;;;;;;;17.48;16.27;;;;;;;;;;4948696;29;24773;-64
2021/08/24 08:21:42;;;;;;;17.98;16.67;;;;;;;;;;4949644;29;24463;-64
2021/08/24 08:24:07;;;;;;;17.30;16.00;;;;;;;;;;4949758;29;24402;-64
2021/08/24 08:26:33;;;;;;;16.87;15.67;;;;;;;;;;4949393;29;24414;-64
2021/08/24 08:29:02;;;;;;;19.63;18.13;;;;;;;;;;4949510;29;24445;-65
2021/08/24 08:31:27;;;;;;;16.27;15.05;;;;;;;;;;4948902;29;24434;-64
2021/08/24 08:33:53;;;;;;;18.08;16.67;;;;;;;;;;4946157;29;24464;-64
2021/08/24 08:36:18;;;;;;;18.30;16.90;;;;;;;;;;4948130;29;24425;-64
2021/08/24 08:38:43;;;;;;;18.50;17.10;;;;;;;;;;4949033;29;24481;-64
2021/08/24 08:41:16;;;;;;;17.50;16.20;;;;;;;;;;4948703;29;24399;-63
2021/08/24 08:43:54;;;;;;;18.58;17.08;;;;;;;;;;4947644;29;25023;-63
2021/08/24 08:46:31;;;;;;;18.17;16.77;;;;;;;;;;4948708;29;24455;-64
2021/08/24 08:48:56;;;;;;;21.05;19.25;;;;;;;;;;4949171;29;24706;-63
2021/08/24 08:51:47;;;;;;;19.60;18.10;;;;;;;;;;4949225;29;24409;-64
2021/08/24 08:54:19;;;;;;;21.10;19.55;;;;;;;;;;4946349;29;24433;-65
2021/08/24 08:56:47;;;;;;;18.42;17.10;;;;;;;;;;4948865;29;24410;-64
2021/08/24 08:59:14;;;;;;;20.80;19.20;;;;;;;;;;4948927;29;24441;-64
2021/08/24 09:01:50;;;;;;;19.88;18.38;;;;;;;;;;4962453;28;24401;-64
2021/08/24 09:04:27;;;;;;;18.92;17.52;;;;;;;;;;4951841;28;24422;-62
2021/08/24 09:06:55;;;;;;;18.70;17.35;;;;;;;;;;4949169;29;24963;-63
2021/08/24 09:09:20;;;;;;;18.65;17.15;;;;;;;;;;4948956;29;24520;-63
2021/08/24 09:11:47;;;;;;;18.27;16.90;;;;;;;;;;4948879;29;24960;-63
2021/08/24 09:14:17;;;;;;;18.95;17.55;;;;;;;;;;4948231;29;24488;-63
2021/08/24 09:16:56;;;;;;;16.70;15.50;;;;;;;;;;4948961;29;24517;-63
2021/08/24 09:19:25;;;;;;;20.50;18.70;;;;;;;;;;4948657;29;24406;-62
2021/08/24 09:21:51;;;;;;;20.35;18.65;;;;;;;;;;4948904;29;24402;-63
2021/08/24 09:24:21;;;;;;;20.47;18.87;;;;;;;;;;4948410;29;24453;-62
2021/08/24 09:27:05;;;;;;;22.65;20.75;;;;;;;;;;4949008;29;24402;-62
2021/08/24 09:29:36;;;;;;;20.33;18.83;;;;;;;;;;4948724;29;24477;-62
2021/08/24 09:32:03;;;;;;;20.45;18.85;;;;;;;;;;4948641;29;24413;-62
2021/08/24 09:34:32;;;;;;;20.00;18.43;;;;;;;;;;4947956;29;24517;-63
2021/08/24 09:36:57;;;;;;;19.58;18.08;;;;;;;;;;4948840;29;24417;-62
2021/08/24 09:39:41;;;;;;;21.53;19.83;;;;;;;;;;4948692;29;24753;-62
2021/08/24 09:42:07;;;;;;;18.93;17.53;;;;;;;;;;4949001;29;24406;-62
2021/08/24 09:44:33;;;;;;;20.20;18.70;;;;;;;;;;4947751;29;24401;-62
2021/08/24 09:47:12;;;;;;;21.08;19.48;;;;;;;;;;4947792;29;24437;-61
2021/08/24 09:49:38;;;;;;;18.98;17.55;;;;;;;;;;4948530;29;24421;-62
2021/08/24 09:52:09;;;;;;;20.10;18.60;;;;;;;;;;4948794;29;24406;-61
2021/08/24 09:54:38;;;;;;;22.67;20.98;;;;;;;;;;4948552;29;24405;-62
2021/08/24 09:57:09;;;;;;;20.70;19.10;;;;;;;;;;4945416;28;24464;-61
2021/08/24 09:59:36;;;;;;;20.23;18.73;;;;;;;;;;4956654;28;24405;-61
2021/08/24 10:02:02;;;;;;;20.30;18.90;;;;;;;;;;4971201;28;24500;-62
2021/08/24 10:04:28;;;;;;;17.47;16.27;;;;;;;;;;4970624;28;24517;-61
2021/08/24 10:06:53;;;;;;;20.00;18.60;;;;;;;;;;4958590;28;24513;-61
2021/08/24 10:09:24;;;;;;;19.00;17.70;;;;;;;;;;4951336;29;24904;-62
2021/08/24 10:11:49;;;;;;;18.57;17.27;;;;;;;;;;4951305;29;24596;-62
2021/08/24 10:14:22;;;;;;;20.90;19.40;;;;;;;;;;4951347;29;25014;-63
2021/08/24 10:16:48;;;;;;;17.60;16.30;;;;;;;;;;4950809;29;24988;-62
2021/08/24 10:19:21;;;;;;;15.98;14.88;;;;;;;;;;4951371;29;24387;-62
2021/08/24 10:22:04;;;;;;;16.88;15.63;;;;;;;;;;4951066;29;24402;-62
2021/08/24 10:24:31;;;;;;;17.20;16.00;;;;;;;;;;4950577;29;24386;-62
2021/08/24 10:26:59;;;;;;;14.67;13.73;;;;;;;;;;4950959;29;24421;-62
2021/08/24 10:29:29;;;;;;;16.23;15.13;;;;;;;;;;4948604;29;24839;-62
2021/08/24 10:31:57;;;;;;;15.75;14.55;;;;;;;;;;4949913;29;24810;-62
2021/08/24 10:34:33;;;;;;;19.80;18.30;;;;;;;;;;4950831;29;24391;-62
2021/08/24 10:37:17;;;;;;;15.25;14.15;;;;;;;;;;4951107;29;24437;-62
2021/08/24 10:39:42;;;;;;;21.20;19.60;;;;;;;;;;4944450;29;24501;-62
2021/08/24 10:42:18;;;;;;;17.70;16.50;;;;;;;;;;4951113;29;24813;-63
2021/08/24 10:44:56;;;;;;;20.02;18.55;;;;;;;;;;4950734;29;24493;-62
2021/08/24 10:47:43;;;;;;;18.20;16.98;;;;;;;;;;4950600;29;24440;-62
2021/08/24 10:50:17;;;;;;;17.42;16.23;;;;;;;;;;4950419;29;24793;-62
2021/08/24 10:52:42;;;;;;;16.10;14.90;;;;;;;;;;4950630;29;24979;-62
2021/08/24 10:55:13;;;;;;;16.80;15.70;;;;;;;;;;4947935;29;25331;-62
2021/08/24 10:57:44;;;;;;;17.88;16.58;;;;;;;;;;4949174;28;24421;-62
2021/08/24 11:00:20;;;;;;;18.27;16.98;;;;;;;;;;4942705;28;24999;-62
2021/08/24 11:03:00;;;;;;;16.40;15.30;;;;;;;;;;4940486;29;24426;-63
2021/08/24 11:05:31;;;;;;;19.13;17.73;;;;;;;;;;4946264;29;24414;-62
2021/08/24 11:08:01;;;;;;;16.70;15.60;;;;;;;;;;4944245;28;24418;-63
2021/08/24 11:10:26;;;;;;;21.80;20.10;;;;;;;;;;4942491;28;24493;-62
2021/08/24 11:13:12;;;;;;;19.10;17.80;;;;;;;;;;4945747;29;24477;-63
2021/08/24 11:15:55;;;;;;;17.75;16.60;;;;;;;;;;4937058;28;24457;-63
2021/08/24 11:18:39;;;;;;;15.30;14.30;;;;;;;;;;4938607;29;24453;-63
2021/08/24 11:21:11;;;;;;;16.85;15.75;;;;;;;;;;4925953;29;24578;-63
2021/08/24 11:23:42;;;;;;;16.42;15.38;;;;;;;;;;4939594;29;24418;-63
2021/08/24 11:26:36;;;;;;;17.95;16.75;;;;;;;;;;4946656;29;24426;-62
2021/08/24 11:29:07;;;;;;;16.20;15.10;;;;;;;;;;4934009;29;24974;-63
2021/08/24 11:31:51;;;;;;;15.50;14.30;;;;;;;;;;4947241;29;24398;-63
2021/08/24 11:34:24;;;;;;;14.83;13.77;;;;;;;;;;4947081;29;24421;-61
2021/08/24 11:36:52;;;;;;;13.75;12.85;;;;;;;;;;4946251;29;24434;-65
2021/08/24 11:39:19;;;;;;;14.75;13.65;;;;;;;;;;4947239;29;24405;-63
2021/08/24 11:41:45;;;;;;;12.00;11.20;;;;;;;;;;4942819;29;25084;-61
2021/08/24 11:44:16;;;;;;;12.77;11.98;;;;;;;;;;4947165;29;24449;-63
2021/08/24 11:46:41;;;;;;;13.50;12.60;;;;;;;;;;4943190;28;24430;-63
2021/08/24 11:49:10;;;;;;;12.30;11.50;;;;;;;;;;4943496;29;24451;-63
2021/08/24 11:51:36;;;;;;;13.70;12.80;;;;;;;;;;4938958;29;24486;-63
2021/08/24 11:54:19;;;;;;;12.10;11.30;;;;;;;;;;4943390;29;24529;-63
2021/08/24 11:56:49;;;;;;;12.52;11.52;;;;;;;;;;4935712;28;24545;-66
2021/08/24 11:59:19;;;;;;;10.60;9.90;;;;;;;;;;4937994;28;24765;-65
2021/08/24 12:01:45;;;;;;;10.65;9.95;;;;;;;;;;4931002;29;24422;-65
2021/08/24 12:04:11;;;;;;;12.73;11.93;;;;;;;;;;4947012;29;24642;-65
2021/08/24 12:06:39;;;;;;;11.90;11.10;;;;;;;;;;4937537;29;24615;-64
2021/08/24 12:09:05;;;;;;;11.10;10.40;;;;;;;;;;4927615;29;24402;-64
2021/08/24 12:11:47;;;;;;;10.00;9.30;;;;;;;;;;4928918;29;24429;-64
2021/08/24 12:14:17;;;;;;;11.00;10.30;;;;;;;;;;4928415;29;24850;-64
2021/08/24 12:16:52;;;;;;;10.98;10.18;;;;;;;;;;4942888;29;24444;-64
2021/08/24 12:19:19;;;;;;;11.88;11.07;;;;;;;;;;4945575;29;24557;-64
2021/08/24 12:21:49;;;;;;;12.70;11.70;;;;;;;;;;4935497;28;24414;-64
2021/08/24 12:24:32;;;;;;;9.82;9.15;;;;;;;;;;4928948;29;24413;-64
2021/08/24 12:27:04;;;;;;;10.00;9.40;;;;;;;;;;4942927;29;24449;-64
2021/08/24 12:29:31;;;;;;;11.60;10.80;;;;;;;;;;4936282;28;24422;-64
2021/08/24 12:31:57;;;;;;;10.48;9.77;;;;;;;;;;4942399;29;24434;-64
2021/08/24 12:34:34;;;;;;;11.20;10.20;;;;;;;;;;4942417;29;24477;-64
2021/08/24 12:37:26;;;;;;;9.20;8.60;;;;;;;;;;4947455;29;24438;-64
2021/08/24 12:39:55;;;;;;;9.13;8.32;;;;;;;;;;4898859;29;24488;-65
2021/08/24 12:42:25;;;;;;;9.00;8.40;;;;;;;;;;4948759;29;24509;-65
2021/08/24 12:44:56;;;;;;;9.73;9.03;;;;;;;;;;4948411;29;24944;-65
2021/08/24 12:47:21;;;;;;;9.93;9.15;;;;;;;;;;4931893;29;24466;-64
2021/08/24 12:49:47;;;;;;;8.07;7.57;;;;;;;;;;4930071;29;24455;-65
2021/08/24 12:52:14;;;;;;;8.30;7.80;;;;;;;;;;4941182;29;24418;-65
2021/08/24 12:55:03;;;;;;;8.05;7.50;;;;;;;;;;4950465;28;24522;-65
2021/08/24 12:57:31;;;;;;;8.40;7.90;;;;;;;;;;4941062;29;24492;-65
2021/08/24 13:00:09;;;;;;;8.50;7.90;;;;;;;;;;4949136;29;24415;-64
2021/08/24 13:02:35;;;;;;;8.55;7.95;;;;;;;;;;4936694;29;24429;-65
2021/08/24 13:05:04;;;;;;;8.13;7.63;;;;;;;;;;4948496;29;24469;-65
2021/08/24 13:07:35;;;;;;;7.70;7.10;;;;;;;;;;4948375;29;24429;-65
2021/08/24 13:10:13;;;;;;;7.10;6.50;;;;;;;;;;4945822;29;24476;-66
2021/08/24 13:12:39;;;;;;;8.65;8.05;;;;;;;;;;4941398;28;24430;-66
2021/08/24 13:15:23;;;;;;;7.50;7.00;;;;;;;;;;4942436;28;24509;-66
2021/08/24 13:17:49;;;;;;;7.70;7.20;;;;;;;;;;4946802;29;24414;-66
2021/08/24 13:20:23;;;;;;;6.53;6.13;;;;;;;;;;4948199;29;24765;-63
2021/08/24 13:22:50;;;;;;;6.60;6.30;;;;;;;;;;4949237;29;24420;-66
2021/08/24 13:25:17;;;;;;;7.15;6.65;;;;;;;;;;4939315;29;24957;-65
2021/08/24 13:27:48;;;;;;;7.20;6.70;;;;;;;;;;4937093;29;24825;-65
2021/08/24 13:30:16;;;;;;;8.50;7.90;;;;;;;;;;4948673;29;24406;-65
2021/08/24 13:33:02;;;;;;;6.80;6.30;;;;;;;;;;4949568;28;24493;-65
2021/08/24 13:35:34;;;;;;;7.13;6.53;;;;;;;;;;4952474;29;24439;-65
2021/08/24 13:38:07;;;;;;;5.32;4.93;;;;;;;;;;4951318;29;24468;-65
2021/08/24 13:40:33;;;;;;;9.00;8.20;;;;;;;;;;4936883;29;24965;-65
2021/08/24 13:42:59;;;;;;;6.90;6.40;;;;;;;;;;4947529;29;24451;-65
2021/08/24 13:45:26;;;;;;;7.23;6.73;;;;;;;;;;4949309;28;24449;-64
2021/08/24 13:47:53;;;;;;;6.20;5.80;;;;;;;;;;4937221;29;25247;-65
2021/08/24 13:50:24;;;;;;;6.30;5.80;;;;;;;;;;4935190;28;24493;-64
2021/08/24 13:52:57;;;;;;;6.60;6.20;;;;;;;;;;4943234;28;24422;-64
2021/08/24 13:55:27;;;;;;;6.10;5.70;;;;;;;;;;4950908;28;24418;-64
2021/08/24 13:57:52;;;;;;;6.70;6.30;;;;;;;;;;4930193;29;24489;-65
2021/08/24 14:00:19;;;;;;;6.72;6.15;;;;;;;;;;4937295;28;24992;-65
2021/08/24 14:02:48;;;;;;;7.10;6.50;;;;;;;;;;4942441;29;24435;-65
2021/08/24 14:05:15;;;;;;;5.78;5.38;;;;;;;;;;4951656;29;24526;-65
2021/08/24 14:07:41;;;;;;;6.37;5.97;;;;;;;;;;4951443;29;24686;-65
2021/08/24 14:10:15;;;;;;;5.80;5.40;;;;;;;;;;4951798;29;24970;-65
2021/08/24 14:12:49;;;;;;;5.40;5.00;;;;;;;;;;4950747;29;24425;-66
2021/08/24 14:15:46;;;;;;;5.72;5.32;;;;;;;;;;4951422;29;24402;-65
2021/08/24 14:18:13;;;;;;;5.40;5.10;;;;;;;;;;4929455;29;24514;-66
2021/08/24 14:20:41;;;;;;;6.50;5.90;;;;;;;;;;4951825;29;24438;-65
2021/08/24 14:23:22;;;;;;;6.60;6.10;;;;;;;;;;4951233;29;24458;-65
2021/08/24 14:25:49;;;;;;;5.80;5.40;;;;;;;;;;4951179;29;24793;-65
2021/08/24 14:28:23;;;;;;;6.40;5.90;;;;;;;;;;4951239;28;24478;-65
2021/08/24 14:30:49;;;;;;;5.93;5.53;;;;;;;;;;4951502;29;24437;-65
2021/08/24 14:33:19;;;;;;;5.10;4.70;;;;;;;;;;4951356;29;24819;-65
2021/08/24 14:35:55;;;;;;;5.47;5.07;;;;;;;;;;4951307;29;24468;-65
2021/08/24 14:38:29;;;;;;;6.00;5.60;;;;;;;;;;4951070;29;25030;-65
2021/08/24 14:41:04;;;;;;;5.60;5.20;;;;;;;;;;4951274;29;24440;-65